createdAt,value
2022-08-26T00:01:54.245Z,19.80
2022-08-26T00:04:23.538Z,19.80
2022-08-26T00:06:51.648Z,19.90
2022-08-26T00:09:19.591Z,19.90
2022-08-26T00:11:47.917Z,19.90
2022-08-26T00:14:16.301Z,19.60
2022-08-26T00:16:48.017Z,19.50
2022-08-26T00:19:18.837Z,19.60
2022-08-26T00:21:49.549Z,19.30
2022-08-26T00:24:17.833Z,19.20
2022-08-26T00:26:45.777Z,19.10
2022-08-26T00:29:14.210Z,19.00
2022-08-26T00:31:42.902Z,19.20
2022-08-26T00:34:13.887Z,19.30
2022-08-26T00:36:43.405Z,19.30
2022-08-26T00:39:11.297Z,19.10
2022-08-26T00:41:39.909Z,18.90
2022-08-26T00:44:07.954Z,19.00
2022-08-26T00:46:36.927Z,19.10
2022-08-26T00:49:12.217Z,19.10
2022-08-26T00:51:45.087Z,19.10
2022-08-26T00:54:13.233Z,19.00
2022-08-26T00:56:44.469Z,18.90
2022-08-26T00:59:15.269Z,18.80
2022-08-26T01:01:45.990Z,18.90
2022-08-26T01:04:15.400Z,19.10
2022-08-26T01:06:44.808Z,19.10
2022-08-26T01:09:12.865Z,19.00
2022-08-26T01:11:40.723Z,18.80
2022-08-26T01:14:08.599Z,18.80
2022-08-26T01:16:37.628Z,19.00
2022-08-26T01:19:10.990Z,18.90
2022-08-26T01:21:42.107Z,18.90
2022-08-26T01:24:11.343Z,18.90
2022-08-26T01:27:55.383Z,18.90
2022-08-26T01:30:25.441Z,18.70
2022-08-26T01:32:53.275Z,18.80
2022-08-26T01:35:21.344Z,18.90
2022-08-26T01:37:50.387Z,19.00
2022-08-26T01:40:25.597Z,18.80
2022-08-26T01:42:53.738Z,18.80
2022-08-26T01:45:23.698Z,18.80
2022-08-26T01:47:56.526Z,18.80
2022-08-26T01:50:30.292Z,18.90
2022-08-26T01:52:59.079Z,19.10
2022-08-26T01:55:32.911Z,18.80
2022-08-26T01:58:04.616Z,18.60
2022-08-26T02:00:33.339Z,18.60
2022-08-26T02:03:15.336Z,18.70
2022-08-26T02:05:43.369Z,18.80
2022-08-26T02:08:11.534Z,18.80
2022-08-26T02:10:40.693Z,18.60
2022-08-26T02:13:10.980Z,18.70
2022-08-26T02:15:42.915Z,18.60
2022-08-26T02:18:14.157Z,18.50
2022-08-26T02:20:42.066Z,18.40
2022-08-26T02:23:09.904Z,18.40
2022-08-26T02:25:44.543Z,18.40
2022-08-26T02:28:12.651Z,18.50
2022-08-26T02:30:40.479Z,18.40
2022-08-26T02:33:08.472Z,18.40
2022-08-26T02:35:36.711Z,18.40
2022-08-26T02:38:10.075Z,18.40
2022-08-26T02:40:41.516Z,18.30
2022-08-26T02:43:09.675Z,18.30
2022-08-26T02:45:37.655Z,18.40
2022-08-26T02:48:09.128Z,18.40
2022-08-26T02:50:38.161Z,18.30
2022-08-26T02:53:07.433Z,18.10
2022-08-26T02:55:35.531Z,18.00
2022-08-26T02:58:04.799Z,18.00
2022-08-26T03:00:33.223Z,18.00
2022-08-26T03:03:01.187Z,18.10
2022-08-26T03:05:29.022Z,18.10
2022-08-26T03:07:56.988Z,18.00
2022-08-26T03:10:28.115Z,18.00
2022-08-26T03:12:56.225Z,18.00
2022-08-26T03:15:25.458Z,17.90
2022-08-26T03:17:53.266Z,17.80
2022-08-26T03:20:21.201Z,17.80
2022-08-26T03:22:51.368Z,17.70
2022-08-26T03:25:19.190Z,17.70
2022-08-26T03:27:47.027Z,17.80
2022-08-26T03:30:32.889Z,17.90
2022-08-26T03:33:02.405Z,18.00
2022-08-26T03:35:30.404Z,17.80
2022-08-26T03:37:58.217Z,17.70
2022-08-26T03:40:28.931Z,17.60
2022-08-26T03:42:56.999Z,17.60
2022-08-26T03:45:24.900Z,17.50
2022-08-26T03:47:52.740Z,17.60
2022-08-26T03:50:24.318Z,17.90
2022-08-26T03:52:52.358Z,18.20
2022-08-26T03:55:20.777Z,17.80
2022-08-26T03:57:51.634Z,17.80
2022-08-26T04:00:19.686Z,18.00
2022-08-26T04:02:48.823Z,17.90
2022-08-26T04:05:17.445Z,17.80
2022-08-26T04:07:47.200Z,17.50
2022-08-26T04:10:20.108Z,17.20
2022-08-26T04:12:48.340Z,17.20
2022-08-26T04:15:16.568Z,17.10
2022-08-26T04:17:45.740Z,17.10
2022-08-26T04:20:17.120Z,17.40
2022-08-26T04:22:46.359Z,17.50
2022-08-26T04:25:14.357Z,17.40
2022-08-26T04:27:42.172Z,17.10
2022-08-26T04:30:11.233Z,17.00
2022-08-26T04:32:39.601Z,17.00
2022-08-26T04:35:09.951Z,16.80
2022-08-26T04:37:38.244Z,17.10
2022-08-26T04:40:10.082Z,17.20
2022-08-26T04:42:37.971Z,17.20
2022-08-26T04:45:10.130Z,17.10
2022-08-26T04:47:38.368Z,16.90
2022-08-26T04:50:07.354Z,17.00
2022-08-26T04:52:35.522Z,17.00
2022-08-26T04:55:03.345Z,16.80
2022-08-26T04:57:35.597Z,16.80
2022-08-26T05:00:04.623Z,16.90
2022-08-26T05:02:32.688Z,16.70
2022-08-26T05:05:00.642Z,16.70
2022-08-26T05:07:28.571Z,16.60
2022-08-26T05:09:56.472Z,16.70
2022-08-26T05:12:24.473Z,16.90
2022-08-26T05:14:54.021Z,16.90
2022-08-26T05:17:22.503Z,16.80
2022-08-26T05:19:50.567Z,16.70
2022-08-26T05:22:18.487Z,16.80
2022-08-26T05:24:46.445Z,16.90
2022-08-26T05:27:14.380Z,17.20
2022-08-26T05:29:42.449Z,17.30
2022-08-26T05:32:13.503Z,17.20
2022-08-26T05:34:42.880Z,17.30
2022-08-26T05:37:10.919Z,17.20
2022-08-26T05:39:43.441Z,17.30
2022-08-26T05:42:16.707Z,17.20
2022-08-26T05:44:53.927Z,17.30
2022-08-26T05:47:25.362Z,17.30
2022-08-26T05:49:53.341Z,17.40
2022-08-26T05:52:21.200Z,17.40
2022-08-26T05:54:52.591Z,17.50
2022-08-26T05:57:20.445Z,17.50
2022-08-26T05:59:51.565Z,17.50
2022-08-26T06:02:19.444Z,17.50
2022-08-26T06:04:48.596Z,17.60
2022-08-26T06:07:17.040Z,17.70
2022-08-26T06:09:46.353Z,17.80
2022-08-26T06:12:15.728Z,17.80
2022-08-26T06:14:46.321Z,18.00
2022-08-26T06:17:16.818Z,18.10
2022-08-26T06:19:45.631Z,18.20
2022-08-26T06:22:28.717Z,18.20
2022-08-26T06:25:13.955Z,18.40
2022-08-26T06:27:41.827Z,18.40
2022-08-26T06:30:10.737Z,18.60
2022-08-26T06:32:38.563Z,18.70
2022-08-26T06:35:07.428Z,18.90
2022-08-26T06:37:42.790Z,19.00
2022-08-26T06:40:11.615Z,19.10
2022-08-26T06:42:39.522Z,19.10
2022-08-26T06:45:08.356Z,19.30
2022-08-26T06:47:36.256Z,19.40
2022-08-26T06:50:04.172Z,19.60
2022-08-26T06:52:32.084Z,19.70
2022-08-26T06:55:01.226Z,19.80
2022-08-26T06:57:32.758Z,19.80
2022-08-26T07:00:02.937Z,19.80
2022-08-26T07:02:31.897Z,20.00
2022-08-26T07:04:59.770Z,20.10
2022-08-26T07:07:27.719Z,20.30
2022-08-26T07:09:55.615Z,20.40
2022-08-26T07:12:24.799Z,20.60
2022-08-26T07:14:52.971Z,20.70
2022-08-26T07:17:21.727Z,20.80
2022-08-26T07:19:53.570Z,20.90
2022-08-26T07:22:21.564Z,21.10
2022-08-26T07:24:49.525Z,21.30
2022-08-26T07:27:17.646Z,21.40
2022-08-26T07:29:46.819Z,21.40
2022-08-26T07:32:15.444Z,21.50
2022-08-26T07:34:43.944Z,21.70
2022-08-26T07:37:11.787Z,21.80
2022-08-26T07:39:41.613Z,22.10
2022-08-26T07:42:13.071Z,22.50
2022-08-26T07:44:41.854Z,22.90
2022-08-26T07:47:24.819Z,23.40
2022-08-26T07:49:53.387Z,23.90
2022-08-26T07:52:26.382Z,24.80
2022-08-26T07:54:54.732Z,25.20
2022-08-26T07:57:22.556Z,25.40
2022-08-26T07:59:52.153Z,25.50
2022-08-26T08:02:24.293Z,25.10
2022-08-26T08:04:52.619Z,25.40
2022-08-26T08:07:20.512Z,25.70
2022-08-26T08:09:49.421Z,26.00
2022-08-26T08:12:17.217Z,26.50
2022-08-26T08:14:46.835Z,26.30
2022-08-26T08:17:16.540Z,26.70
2022-08-26T08:19:45.693Z,26.80
2022-08-26T08:22:17.585Z,26.90
2022-08-26T08:24:49.702Z,26.70
2022-08-26T08:27:22.858Z,26.80
2022-08-26T08:29:54.126Z,27.20
2022-08-26T08:32:22.019Z,27.90
2022-08-26T08:34:51.223Z,27.90
2022-08-26T08:37:19.442Z,28.00
2022-08-26T08:39:47.352Z,27.70
2022-08-26T08:42:33.705Z,28.10
2022-08-26T08:45:04.484Z,28.30
2022-08-26T08:47:33.822Z,28.40
2022-08-26T08:50:07.186Z,28.70
2022-08-26T08:52:36.150Z,28.80
2022-08-26T08:55:04.554Z,28.90
2022-08-26T08:57:42.023Z,28.80
2022-08-26T09:00:17.825Z,29.30
2022-08-26T09:02:50.506Z,29.10
2022-08-26T09:05:21.553Z,29.20
2022-08-26T09:07:51.553Z,29.50
2022-08-26T09:10:34.487Z,29.60
2022-08-26T09:13:04.413Z,30.10
2022-08-26T09:15:36.232Z,30.10
2022-08-26T09:18:06.499Z,30.00
2022-08-26T09:20:41.039Z,30.10
2022-08-26T09:23:10.776Z,29.80
2022-08-26T09:25:46.817Z,29.90
2022-08-26T09:28:17.418Z,29.90
2022-08-26T09:30:46.455Z,29.50
2022-08-26T09:33:17.545Z,29.40
2022-08-26T09:35:48.829Z,29.80
2022-08-26T09:38:24.270Z,29.60
2022-08-26T09:40:59.152Z,29.60
2022-08-26T09:43:28.507Z,29.80
2022-08-26T09:46:10.626Z,29.70
2022-08-26T09:48:40.600Z,29.30
2022-08-26T09:51:28.214Z,29.30
2022-08-26T09:53:57.065Z,29.20
2022-08-26T09:56:27.715Z,29.70
2022-08-26T09:58:55.847Z,29.70
2022-08-26T10:01:30.212Z,30.20
2022-08-26T10:04:05.664Z,30.50
2022-08-26T10:06:38.151Z,30.60
2022-08-26T10:09:09.883Z,30.90
2022-08-26T10:11:40.697Z,30.70
2022-08-26T10:14:11.069Z,29.70
2022-08-26T10:16:42.458Z,29.10
2022-08-26T10:19:12.662Z,29.70
2022-08-26T10:21:54.052Z,29.60
2022-08-26T10:24:24.276Z,29.10
2022-08-26T10:26:59.755Z,29.30
2022-08-26T10:29:34.204Z,29.20
2022-08-26T10:32:04.650Z,29.80
2022-08-26T10:34:33.048Z,30.20
2022-08-26T10:37:14.701Z,30.80
2022-08-26T10:39:56.810Z,30.50
2022-08-26T10:42:42.122Z,31.10
2022-08-26T10:45:14.864Z,30.80
2022-08-26T10:47:46.076Z,31.20
2022-08-26T10:50:13.924Z,31.20
2022-08-26T10:52:52.218Z,31.00
2022-08-26T10:55:23.548Z,31.10
2022-08-26T10:57:56.072Z,30.70
2022-08-26T11:00:43.967Z,30.50
2022-08-26T11:03:22.103Z,30.70
2022-08-26T11:06:12.192Z,31.00
2022-08-26T11:08:46.430Z,31.10
2022-08-26T11:11:14.226Z,31.10
2022-08-26T11:14:02.083Z,31.10
2022-08-26T11:16:34.937Z,31.70
2022-08-26T11:19:02.939Z,31.70
2022-08-26T11:22:05.065Z,31.70
2022-08-26T11:25:11.774Z,31.20
2022-08-26T11:28:08.334Z,30.80
2022-08-26T11:30:42.669Z,30.20
2022-08-26T11:33:11.769Z,29.80
2022-08-26T11:35:48.525Z,29.30
2022-08-26T11:38:19.298Z,29.00
2022-08-26T11:40:47.170Z,28.50
2022-08-26T11:43:19.604Z,28.70
2022-08-26T11:45:48.631Z,28.90
2022-08-26T11:48:18.818Z,29.50
2022-08-26T11:50:53.930Z,29.50
2022-08-26T11:53:22.883Z,29.50
2022-08-26T11:55:51.713Z,29.80
2022-08-26T11:58:23.407Z,30.20
2022-08-26T12:00:55.660Z,30.20
2022-08-26T12:03:25.045Z,29.80
2022-08-26T12:05:53.764Z,29.00
2022-08-26T12:08:24.659Z,28.70
2022-08-26T12:11:03.826Z,28.50
2022-08-26T12:13:38.952Z,28.50
2022-08-26T12:16:07.406Z,28.30
2022-08-26T12:18:36.433Z,28.30
2022-08-26T12:21:12.214Z,28.40
2022-08-26T12:23:50.057Z,28.90
2022-08-26T12:26:22.508Z,29.20
2022-08-26T12:28:54.511Z,29.60
2022-08-26T12:31:24.627Z,29.90
2022-08-26T12:33:52.589Z,29.30
2022-08-26T12:36:24.628Z,29.40
2022-08-26T12:38:54.515Z,29.50
2022-08-26T12:41:41.558Z,29.60
2022-08-26T12:44:10.707Z,30.20
2022-08-26T12:46:38.510Z,30.50
2022-08-26T12:49:06.326Z,30.60
2022-08-26T12:51:35.290Z,30.70
2022-08-26T12:54:06.593Z,30.10
2022-08-26T12:56:40.991Z,29.50
2022-08-26T12:59:22.638Z,29.90
2022-08-26T13:01:50.608Z,29.70
2022-08-26T13:04:35.578Z,29.10
2022-08-26T13:07:23.254Z,29.50
2022-08-26T13:09:51.579Z,29.90
2022-08-26T13:12:27.468Z,30.00
2022-08-26T13:14:57.555Z,29.90
2022-08-26T13:17:25.574Z,29.90
2022-08-26T13:19:53.438Z,30.10
2022-08-26T13:22:24.121Z,29.70
2022-08-26T13:24:54.094Z,29.10
2022-08-26T13:27:23.371Z,29.00
2022-08-26T13:29:51.725Z,28.90
2022-08-26T13:32:22.503Z,28.90
2022-08-26T13:34:54.029Z,28.50
2022-08-26T13:37:34.281Z,28.60
2022-08-26T13:40:02.787Z,28.90
2022-08-26T13:42:31.282Z,29.10
2022-08-26T13:44:59.789Z,29.20
2022-08-26T13:47:28.939Z,29.40
2022-08-26T13:49:57.118Z,28.90
2022-08-26T13:52:31.032Z,28.70
2022-08-26T13:55:00.025Z,29.10
2022-08-26T13:57:28.402Z,29.50
2022-08-26T13:59:58.887Z,29.70
2022-08-26T14:06:15.126Z,30.00
2022-08-26T14:08:43.168Z,29.70
2022-08-26T14:11:11.047Z,29.80
2022-08-26T14:13:39.236Z,29.70
2022-08-26T14:16:09.885Z,29.60
2022-08-26T14:18:41.814Z,29.50
2022-08-26T14:21:11.143Z,29.20
2022-08-26T14:23:41.478Z,28.70
2022-08-26T14:26:10.965Z,28.50
2022-08-26T14:28:47.214Z,28.50
2022-08-26T14:31:15.063Z,28.50
2022-08-26T14:33:42.978Z,28.30
2022-08-26T14:36:29.245Z,28.40
2022-08-26T14:39:00.770Z,28.80
2022-08-26T14:41:28.908Z,29.00
2022-08-26T14:44:00.094Z,29.10
2022-08-26T14:46:29.088Z,29.10
2022-08-26T14:49:01.820Z,29.00
2022-08-26T14:51:30.864Z,28.70
2022-08-26T14:54:16.112Z,28.40
2022-08-26T14:56:46.506Z,28.60
2022-08-26T14:59:14.693Z,28.90
2022-08-26T15:01:42.890Z,29.20
2022-08-26T15:04:10.868Z,29.10
2022-08-26T15:06:38.721Z,29.30
2022-08-26T15:09:08.083Z,29.20
2022-08-26T15:11:35.945Z,29.30
2022-08-26T15:14:03.830Z,28.90
2022-08-26T15:16:31.768Z,28.80
2022-08-26T15:19:03.967Z,28.80
2022-08-26T15:21:31.951Z,28.80
2022-08-26T15:24:00.851Z,28.90
2022-08-26T15:26:30.909Z,29.30
2022-08-26T15:29:01.909Z,28.90
2022-08-26T15:31:32.948Z,29.20
2022-08-26T15:34:02.680Z,29.30
2022-08-26T15:36:31.177Z,29.50
2022-08-26T15:38:59.187Z,29.30
2022-08-26T15:41:27.044Z,29.40
2022-08-26T15:43:56.508Z,29.20
2022-08-26T15:46:24.386Z,29.20
2022-08-26T15:48:52.825Z,28.50
2022-08-26T15:51:22.025Z,28.80
2022-08-26T15:53:50.431Z,28.50
2022-08-26T15:56:18.350Z,28.60
2022-08-26T15:58:46.939Z,28.60
2022-08-26T16:01:18.154Z,28.50
2022-08-26T16:03:55.486Z,27.70
2022-08-26T16:06:24.448Z,27.60
2022-08-26T16:08:52.294Z,27.40
2022-08-26T16:11:20.299Z,27.30
2022-08-26T16:13:48.207Z,27.00
2022-08-26T16:16:17.702Z,27.00
2022-08-26T16:18:45.749Z,27.00
2022-08-26T16:25:01.309Z,26.80
2022-08-26T16:27:29.086Z,26.60
2022-08-26T16:29:56.907Z,26.60
2022-08-26T16:32:29.435Z,26.70
2022-08-26T16:34:59.661Z,26.60
2022-08-26T16:37:27.933Z,26.60
2022-08-26T16:39:56.012Z,26.60
2022-08-26T16:42:23.997Z,26.50
2022-08-26T16:44:52.377Z,26.30
2022-08-26T16:47:21.494Z,26.20
2022-08-26T16:49:50.717Z,26.00
2022-08-26T16:52:18.634Z,26.10
2022-08-26T16:54:46.468Z,26.30
2022-08-26T16:57:14.612Z,26.40
2022-08-26T16:59:42.611Z,26.30
2022-08-26T17:02:11.787Z,26.20
2022-08-26T17:04:39.854Z,26.40
2022-08-26T17:07:09.093Z,26.40
2022-08-26T17:09:37.436Z,26.20
2022-08-26T17:12:09.464Z,26.10
2022-08-26T17:14:37.281Z,26.10
2022-08-26T17:17:06.075Z,26.00
2022-08-26T17:19:39.059Z,26.00
2022-08-26T17:22:11.031Z,25.90
2022-08-26T17:24:38.878Z,25.90
2022-08-26T17:27:06.773Z,25.90
2022-08-26T17:29:34.677Z,25.90
2022-08-26T17:32:02.526Z,25.90
2022-08-26T17:34:30.349Z,25.90
2022-08-26T17:36:59.112Z,25.80
2022-08-26T17:39:28.316Z,25.80
2022-08-26T17:41:56.195Z,25.90
2022-08-26T17:44:24.504Z,25.80
2022-08-26T17:46:52.884Z,25.70
2022-08-26T17:49:20.818Z,25.50
2022-08-26T17:51:49.216Z,25.20
2022-08-26T17:54:17.184Z,24.90
2022-08-26T17:56:46.548Z,24.90
2022-08-26T17:59:14.508Z,24.90
2022-08-26T18:01:42.558Z,24.90
2022-08-26T18:04:10.990Z,24.90
2022-08-26T18:06:39.278Z,24.60
2022-08-26T18:09:07.232Z,24.80
2022-08-26T18:11:35.244Z,24.70
2022-08-26T18:14:04.579Z,24.60
2022-08-26T18:16:38.089Z,24.60
2022-08-26T18:19:06.313Z,24.40
2022-08-26T18:21:34.256Z,24.50
2022-08-26T18:24:02.338Z,24.30
2022-08-26T18:26:32.121Z,24.20
2022-08-26T18:29:00.298Z,24.10
2022-08-26T18:31:29.977Z,24.30
2022-08-26T18:33:58.347Z,24.20
2022-08-26T18:36:27.742Z,24.00
2022-08-26T18:38:56.153Z,23.90
2022-08-26T18:45:13.380Z,23.80
2022-08-26T18:47:45.540Z,23.90
2022-08-26T18:50:13.356Z,23.90
2022-08-26T18:52:41.204Z,23.80
2022-08-26T18:55:09.280Z,23.40
2022-08-26T18:57:37.133Z,23.30
2022-08-26T19:00:05.849Z,23.30
2022-08-26T19:02:34.306Z,23.10
2022-08-26T19:05:03.943Z,23.00
2022-08-26T19:07:33.106Z,23.00
2022-08-26T19:10:02.466Z,23.20
2022-08-26T19:12:33.252Z,23.40
2022-08-26T19:15:02.434Z,23.20
2022-08-26T19:17:30.360Z,23.00
2022-08-26T19:19:58.202Z,23.00
2022-08-26T19:22:27.470Z,23.10
2022-08-26T19:24:55.314Z,22.90
2022-08-26T19:27:23.206Z,22.80
2022-08-26T19:29:51.166Z,22.60
2022-08-26T19:32:24.088Z,22.40
2022-08-26T19:34:52.081Z,22.40
2022-08-26T19:37:20.233Z,22.20
2022-08-26T19:39:49.622Z,22.00
2022-08-26T19:42:17.537Z,21.80
2022-08-26T19:45:03.147Z,21.50
2022-08-26T19:47:31.313Z,21.60
2022-08-26T19:50:02.553Z,21.80
2022-08-26T19:52:31.264Z,22.10
2022-08-26T19:55:01.101Z,22.10
2022-08-26T19:57:29.038Z,22.00
2022-08-26T19:59:57.152Z,22.10
2022-08-26T20:02:25.093Z,22.00
2022-08-26T20:04:53.044Z,21.80
2022-08-26T20:07:21.007Z,21.70
2022-08-26T20:09:49.067Z,21.60
2022-08-26T20:12:18.571Z,21.50
2022-08-26T20:14:46.432Z,21.40
2022-08-26T20:17:16.037Z,21.40
2022-08-26T20:20:01.674Z,21.60
2022-08-26T20:22:30.333Z,21.70
2022-08-26T20:24:58.232Z,21.70
2022-08-26T20:27:38.110Z,21.50
2022-08-26T20:30:07.526Z,21.30
2022-08-26T20:32:35.731Z,21.30
2022-08-26T20:35:03.816Z,21.20
2022-08-26T20:37:31.679Z,21.10
2022-08-26T20:39:59.580Z,21.00
2022-08-26T20:42:28.992Z,20.80
2022-08-26T20:44:57.103Z,20.50
2022-08-26T20:47:24.965Z,20.50
2022-08-26T20:49:55.571Z,20.70
2022-08-26T20:52:23.436Z,20.60
2022-08-26T20:54:51.287Z,20.60
2022-08-26T20:57:19.161Z,20.70
2022-08-26T20:59:48.364Z,20.50
2022-08-26T21:02:16.231Z,20.50
2022-08-26T21:04:44.152Z,20.40
2022-08-26T21:07:12.034Z,20.30
2022-08-26T21:09:39.922Z,20.30
2022-08-26T21:12:08.127Z,20.30
2022-08-26T21:14:35.967Z,20.50
2022-08-26T21:17:05.271Z,20.50
2022-08-26T21:19:33.156Z,20.70
2022-08-26T21:22:01.070Z,20.70
2022-08-26T21:24:28.990Z,20.60
2022-08-26T21:26:56.854Z,20.50
2022-08-26T21:29:24.707Z,20.40
2022-08-26T21:31:52.798Z,20.20
2022-08-26T21:34:22.035Z,20.20
2022-08-26T21:36:50.071Z,20.10
2022-08-26T21:39:17.960Z,20.20
2022-08-26T21:41:46.000Z,20.00
2022-08-26T21:44:14.313Z,20.10
2022-08-26T21:46:42.301Z,20.00
2022-08-26T21:49:11.604Z,19.80
2022-08-26T21:51:42.041Z,19.80
2022-08-26T21:54:11.289Z,19.90
2022-08-26T21:56:40.420Z,19.60
2022-08-26T21:59:08.637Z,19.40
2022-08-26T22:01:36.674Z,19.30
2022-08-26T22:04:05.613Z,19.20
2022-08-26T22:06:34.433Z,19.20
2022-08-26T22:09:03.672Z,19.20
2022-08-26T22:11:32.281Z,19.20
2022-08-26T22:14:00.186Z,19.10
2022-08-26T22:16:28.772Z,19.20
2022-08-26T22:18:56.784Z,19.10
2022-08-26T22:21:25.893Z,19.30
2022-08-26T22:23:57.915Z,19.30
2022-08-26T22:26:28.704Z,19.40
2022-08-26T22:28:58.770Z,19.30
2022-08-26T22:31:28.161Z,19.20
2022-08-26T22:34:07.296Z,19.10
2022-08-26T22:36:35.166Z,19.20
2022-08-26T22:39:04.409Z,19.40
2022-08-26T22:41:34.162Z,19.50
2022-08-26T22:44:02.544Z,19.30
2022-08-26T22:46:30.413Z,19.40
2022-08-26T22:48:58.276Z,19.20
2022-08-26T22:51:26.633Z,19.20
2022-08-26T22:53:54.509Z,19.20
2022-08-26T22:56:22.465Z,19.20
2022-08-26T22:58:51.696Z,19.10
2022-08-26T23:01:19.628Z,19.10
2022-08-26T23:03:47.623Z,18.90
2022-08-26T23:06:15.519Z,18.80
2022-08-26T23:08:46.229Z,18.70
2022-08-26T23:11:14.349Z,18.60
2022-08-26T23:13:42.357Z,18.60
2022-08-26T23:16:12.368Z,18.70
2022-08-26T23:18:40.599Z,18.70
2022-08-26T23:21:08.539Z,18.80
2022-08-26T23:23:37.902Z,18.80
2022-08-26T23:26:06.477Z,18.90
2022-08-26T23:28:34.465Z,18.90
2022-08-26T23:31:02.301Z,18.80
2022-08-26T23:33:45.457Z,18.70
2022-08-26T23:36:17.479Z,18.70
2022-08-26T23:38:48.157Z,18.60
2022-08-26T23:41:20.988Z,18.70
2022-08-26T23:43:48.994Z,18.50
2022-08-26T23:46:16.872Z,18.60
2022-08-26T23:48:46.086Z,18.60
2022-08-26T23:51:31.449Z,18.40
2022-08-26T23:53:59.354Z,18.40
2022-08-26T23:56:27.293Z,18.40
2022-08-26T23:58:55.141Z,18.50
